Wetterdaten: Woche 15.11.10 - 21.11.10 (KW46)
Datum Zeit Temp. A. Feuchte A. Luftdruck Regen Wind Richtung Taupunkt Windchill Windben
15.11.2010 00:00 4,4 C 84 % 1010,0 hPa 0,0 l/m 0,0 km/h N 2,0 C 4,4 C 0,8 km/h
15.11.2010 01:00 4,0 C 85 % 1010,4 hPa 0,0 l/m 0,0 km/h N 1,6 C 4,0 C 1,2 km/h
15.11.2010 02:00 5,3 C 83 % 1010,8 hPa 0,3 l/m 0,7 km/h N 2,6 C 5,3 C 5,2 km/h
15.11.2010 03:00 6,4 C 84 % 1010,8 hPa 0,0 l/m 0,3 km/h N 3,9 C 6,4 C 2,4 km/h
15.11.2010 04:00 6,2 C 84 % 1011,2 hPa 0,0 l/m 0,0 km/h N 3,7 C 6,2 C 0,4 km/h
15.11.2010 05:00 6,7 C 83 % 1011,5 hPa 0,0 l/m 0,0 km/h N 4,0 C 6,7 C 0,8 km/h
15.11.2010 06:00 7,6 C 83 % 1011,7 hPa 0,0 l/m 0,0 km/h N 4,8 C 7,6 C 1,2 km/h
15.11.2010 07:00 7,9 C 83 % 1011,9 hPa 0,0 l/m 0,2 km/h N 5,2 C 7,9 C 2,0 km/h
15.11.2010 08:00 8,5 C 83 % 1012,2 hPa 0,0 l/m 0,0 km/h N 5,8 C 8,5 C 0,8 km/h
15.11.2010 09:00 8,7 C 83 % 1012,4 hPa 0,0 l/m 0,0 km/h N 6,0 C 8,7 C 0,4 km/h
15.11.2010 10:00 9,0 C 83 % 1012,5 hPa 0,0 l/m 0,4 km/h N 6,3 C 9,0 C 3,6 km/h
15.11.2010 11:00 9,2 C 83 % 1012,5 hPa 0,0 l/m 0,4 km/h N 6,5 C 9,2 C 3,6 km/h
15.11.2010 12:00 9,2 C 83 % 1012,1 hPa 0,0 l/m 0,6 km/h O-SO 6,5 C 9,2 C 2,8 km/h
15.11.2010 13:00 9,2 C 83 % 1011,8 hPa 0,0 l/m 0,2 km/h N 6,5 C 9,2 C 2,0 km/h
15.11.2010 14:00 9,2 C 84 % 1011,4 hPa 0,0 l/m 0,7 km/h O 6,6 C 9,2 C 4,0 km/h
15.11.2010 15:00 9,2 C 84 % 1011,2 hPa 0,0 l/m 0,0 km/h N 6,6 C 9,2 C 0,4 km/h
15.11.2010 16:00 9,2 C 84 % 1010,9 hPa 0,0 l/m 0,4 km/h N 6,6 C 9,2 C 2,0 km/h
15.11.2010 17:00 9,0 C 84 % 1010,7 hPa 0,0 l/m 0,1 km/h N 6,5 C 9,0 C 1,6 km/h
15.11.2010 18:00 9,0 C 84 % 1010,5 hPa 0,0 l/m 0,2 km/h N 6,4 C 9,0 C 2,0 km/h
15.11.2010 19:00 8,9 C 84 % 1010,1 hPa 0,0 l/m 0,0 km/h N 6,3 C 8,9 C 0,0 km/h
15.11.2010 20:00 8,9 C 84 % 1009,7 hPa 0,0 l/m 0,1 km/h N 6,3 C 8,9 C 2,0 km/h
15.11.2010 21:00 8,7 C 84 % 1009,8 hPa 0,0 l/m 0,0 km/h N 6,2 C 8,7 C 0,4 km/h
15.11.2010 22:00 8,6 C 84 % 1009,9 hPa 0,0 l/m 0,0 km/h N 6,1 C 8,6 C 0,4 km/h
15.11.2010 23:00 8,6 C 84 % 1010,1 hPa 0,0 l/m 0,0 km/h N 6,0 C 8,6 C 0,0 km/h
16.11.2010 00:00 8,5 C 84 % 1010,3 hPa 0,0 l/m 0,5 km/h NW 6,0 C 8,5 C 3,2 km/h
16.11.2010 01:00 8,3 C 85 % 1010,8 hPa 0,0 l/m 1,9 km/h N-NW 5,8 C 8,3 C 6,0 km/h
16.11.2010 02:00 8,4 C 85 % 1011,0 hPa 0,0 l/m 0,1 km/h N 6,0 C 8,4 C 1,2 km/h
16.11.2010 03:00 8,8 C 85 % 1011,3 hPa 0,0 l/m 0,1 km/h N 6,4 C 8,8 C 1,6 km/h
16.11.2010 04:00 8,8 C 85 % 1011,6 hPa 0,0 l/m 1,6 km/h W 6,4 C 8,8 C 7,2 km/h
16.11.2010 05:00 9,1 C 85 % 1011,6 hPa 0,0 l/m 2,7 km/h SW 6,7 C 9,1 C 7,2 km/h
16.11.2010 06:00 8,2 C 85 % 1011,6 hPa 0,0 l/m 0,2 km/h N 5,8 C 8,2 C 2,4 km/h
16.11.2010 07:00 7,1 C 85 % 1012,0 hPa 0,0 l/m 0,0 km/h N 4,7 C 7,1 C 0,0 km/h
16.11.2010 08:00 7,7 C 85 % 1012,3 hPa 0,0 l/m 0,0 km/h N 5,3 C 7,7 C 1,6 km/h
16.11.2010 09:00 8,7 C 85 % 1012,6 hPa 0,0 l/m 0,1 km/h N 6,3 C 8,7 C 2,0 km/h
16.11.2010 10:00 9,6 C 85 % 1012,7 hPa 0,0 l/m 0,9 km/h S 7,2 C 9,6 C 5,6 km/h
16.11.2010 11:00 10,5 C 84 % 1012,6 hPa 0,0 l/m 0,5 km/h N 8,0 C 10,5 C 4,0 km/h
16.11.2010 12:00 10,9 C 83 % 1012,5 hPa 0,0 l/m 0,1 km/h N 8,0 C 10,9 C 0,4 km/h
16.11.2010 13:00 11,0 C 83 % 1012,8 hPa 0,0 l/m 0,0 km/h N 8,2 C 11,0 C 0,8 km/h
16.11.2010 14:00 11,4 C 82 % 1012,7 hPa 0,0 l/m 0,1 km/h N 8,3 C 11,4 C 1,6 km/h
16.11.2010 15:00 11,2 C 82 % 1012,9 hPa 0,0 l/m 0,0 km/h N 8,2 C 11,2 C 0,4 km/h
16.11.2010 16:00 10,8 C 83 % 1012,9 hPa 0,0 l/m 0,4 km/h NW 7,9 C 10,8 C 3,2 km/h
16.11.2010 17:00 10,6 C 81 % 1013,1 hPa 0,0 l/m 1,7 km/h N-NW 7,5 C 10,6 C 5,6 km/h
16.11.2010 18:00 9,9 C 80 % 1013,4 hPa 0,0 l/m 0,2 km/h W-SW 6,6 C 9,9 C 2,8 km/h
16.11.2010 19:00 9,6 C 81 % 1013,6 hPa 0,0 l/m 2,5 km/h W 6,4 C 9,6 C 9,6 km/h
16.11.2010 20:00 9,4 C 79 % 1013,7 hPa 0,0 l/m 2,9 km/h W 5,9 C 9,4 C 11,7 km/h
16.11.2010 21:00 8,7 C 79 % 1013,8 hPa 0,0 l/m 4,6 km/h W-SW 5,3 C 8,7 C 13,7 km/h
16.11.2010 22:00 8,4 C 78 % 1013,9 hPa 0,0 l/m 4,3 km/h W-NW 4,7 C 8,4 C 12,1 km/h
16.11.2010 23:00 8,1 C 76 % 1013,9 hPa 0,0 l/m 4,0 km/h NW 4,1 C 8,1 C 12,9 km/h
17.11.2010 00:00 7,9 C 76 % 1013,8 hPa 0,0 l/m 3,7 km/h W-SW 3,9 C 7,9 C 14,5 km/h
17.11.2010 01:00 7,7 C 77 % 1013,2 hPa 0,0 l/m 4,2 km/h W-SW 3,8 C 7,7 C 15,7 km/h
17.11.2010 02:00 7,3 C 80 % 1012,7 hPa 0,0 l/m 3,7 km/h W-SW 4,0 C 7,3 C 17,7 km/h
17.11.2010 03:00 7,5 C 78 % 1012,5 hPa 0,0 l/m 3,1 km/h SW 3,9 C 7,5 C 12,5 km/h
17.11.2010 04:00 7,6 C 77 % 1011,9 hPa 0,0 l/m 4,4 km/h W-NW 3,8 C 7,6 C 17,3 km/h
17.11.2010 05:00 7,6 C 77 % 1011,9 hPa 0,0 l/m 3,4 km/h W 3,8 C 7,6 C 11,3 km/h
17.11.2010 06:00 7,6 C 77 % 1011,7 hPa 0,0 l/m 3,4 km/h W-NW 3,9 C 7,6 C 12,1 km/h
17.11.2010 07:00 7,7 C 79 % 1011,3 hPa 0,0 l/m 2,3 km/h W 4,2 C 7,7 C 11,7 km/h
17.11.2010 08:00 8,0 C 80 % 1011,1 hPa 0,0 l/m 1,1 km/h NW 4,7 C 8,0 C 4,0 km/h
17.11.2010 09:00 8,4 C 80 % 1010,7 hPa 0,0 l/m 2,3 km/h W 5,2 C 8,4 C 6,0 km/h
17.11.2010 10:00 8,8 C 81 % 1010,4 hPa 0,0 l/m 2,3 km/h NW 5,7 C 8,8 C 6,0 km/h
17.11.2010 11:00 9,2 C 82 % 1010,0 hPa 0,0 l/m 2,0 km/h N-NW 6,2 C 9,2 C 5,2 km/h
17.11.2010 12:00 9,2 C 80 % 1009,5 hPa 0,0 l/m 3,7 km/h NW 6,0 C 9,2 C 8,5 km/h
17.11.2010 13:00 9,3 C 81 % 1008,9 hPa 0,0 l/m 3,6 km/h N-NW 6,2 C 9,3 C 6,8 km/h
17.11.2010 14:00 9,4 C 81 % 1008,6 hPa 0,0 l/m 1,7 km/h NW 6,3 C 9,4 C 6,4 km/h
17.11.2010 15:00 9,2 C 81 % 1008,4 hPa 0,0 l/m 2,4 km/h N-NW 6,1 C 9,2 C 6,8 km/h
17.11.2010 16:00 8,8 C 82 % 1008,3 hPa 0,0 l/m 2,8 km/h N-NW 5,9 C 8,8 C 6,4 km/h
17.11.2010 17:00 8,4 C 84 % 1008,4 hPa 0,0 l/m 2,3 km/h N-NW 5,8 C 8,4 C 6,0 km/h
17.11.2010 18:00 8,3 C 84 % 1008,4 hPa 0,0 l/m 1,9 km/h N-NW 5,8 C 8,3 C 6,0 km/h
17.11.2010 19:00 8,2 C 85 % 1008,2 hPa 0,0 l/m 0,9 km/h N-NW 5,8 C 8,2 C 5,2 km/h
17.11.2010 20:00 8,3 C 85 % 1008,0 hPa 0,0 l/m 0,1 km/h N 5,9 C 8,3 C 2,4 km/h
17.11.2010 21:00 8,4 C 85 % 1007,9 hPa 0,0 l/m 0,1 km/h N 6,0 C 8,4 C 1,2 km/h
17.11.2010 22:00 8,4 C 85 % 1007,8 hPa 0,0 l/m 0,0 km/h N 6,0 C 8,4 C 0,0 km/h
17.11.2010 23:00 8,5 C 85 % 1007,8 hPa 0,0 l/m 0,0 km/h N 6,1 C 8,5 C 0,0 km/h
18.11.2010 00:00 8,5 C 85 % 1007,2 hPa 0,0 l/m 0,3 km/h N 6,1 C 8,5 C 2,4 km/h
18.11.2010 01:00 8,1 C 85 % 1007,2 hPa 0,0 l/m 1,1 km/h O-SO 5,8 C 8,1 C 4,8 km/h
18.11.2010 02:00 7,7 C 85 % 1007,2 hPa 0,0 l/m 0,6 km/h N 5,3 C 7,7 C 3,2 km/h
18.11.2010 03:00 7,4 C 85 % 1007,1 hPa 0,0 l/m 0,0 km/h N 5,1 C 7,4 C 0,8 km/h
18.11.2010 04:00 7,5 C 85 % 1006,8 hPa 0,3 l/m 0,0 km/h N 5,1 C 7,5 C 0,0 km/h
18.11.2010 05:00 7,5 C 84 % 1007,0 hPa 0,0 l/m 0,0 km/h N 5,0 C 7,5 C 0,0 km/h
18.11.2010 06:00 7,7 C 84 % 1007,5 hPa 0,0 l/m 0,8 km/h N-NW 5,2 C 7,7 C 2,8 km/h
18.11.2010 07:00 7,5 C 85 % 1008,3 hPa 0,0 l/m 1,1 km/h N-NW 5,1 C 7,5 C 4,0 km/h
18.11.2010 08:00 7,5 C 85 % 1008,7 hPa 0,0 l/m 0,1 km/h N 5,1 C 7,5 C 1,2 km/h
18.11.2010 09:00 7,8 C 85 % 1009,2 hPa 0,0 l/m 0,0 km/h N 5,5 C 7,8 C 0,8 km/h
18.11.2010 10:00 8,2 C 85 % 1009,4 hPa 0,0 l/m 0,6 km/h O 5,9 C 8,2 C 3,2 km/h
18.11.2010 11:00 8,5 C 85 % 1009,2 hPa 0,0 l/m 0,5 km/h N 6,1 C 8,5 C 3,2 km/h
18.11.2010 12:00 9,1 C 86 % 1009,1 hPa 0,0 l/m 0,1 km/h N 6,9 C 9,1 C 2,8 km/h
18.11.2010 13:00 9,3 C 84 % 1009,4 hPa 0,0 l/m 0,2 km/h N 6,8 C 9,3 C 2,4 km/h
18.11.2010 14:00 9,5 C 84 % 1009,4 hPa 0,0 l/m 0,1 km/h N 6,9 C 9,5 C 1,6 km/h
18.11.2010 15:00 9,6 C 84 % 1010,0 hPa 0,0 l/m 0,0 km/h N 7,0 C 9,6 C 0,8 km/h
18.11.2010 16:00 9,4 C 84 % 1010,3 hPa 0,0 l/m 0,0 km/h N 6,9 C 9,4 C 0,0 km/h
18.11.2010 17:00 9,3 C 85 % 1010,9 hPa 0,0 l/m 0,0 km/h N 7,0 C 9,3 C 0,0 km/h
18.11.2010 18:00 9,2 C 85 % 1011,3 hPa 0,0 l/m 0,0 km/h N 6,8 C 9,2 C 0,0 km/h
18.11.2010 19:00 9,0 C 85 % 1011,9 hPa 0,0 l/m 0,0 km/h N 6,6 C 9,0 C 0,0 km/h
18.11.2010 20:00 8,8 C 85 % 1012,6 hPa 0,0 l/m 0,0 km/h N 6,4 C 8,8 C 0,0 km/h
18.11.2010 21:00 8,7 C 85 % 1013,1 hPa 0,0 l/m 0,0 km/h N 6,3 C 8,7 C 0,0 km/h
18.11.2010 22:00 7,9 C 85 % 1013,7 hPa 0,0 l/m 0,4 km/h N-NW 5,5 C 7,9 C 2,0 km/h
18.11.2010 23:00 7,8 C 85 % 1014,1 hPa 0,0 l/m 0,6 km/h N 5,4 C 7,8 C 4,0 km/h
19.11.2010 00:00 7,6 C 84 % 1014,3 hPa 0,0 l/m 1,2 km/h N-NW 4,9 C 7,6 C 4,8 km/h
19.11.2010 01:00 7,3 C 83 % 1014,5 hPa 0,0 l/m 0,2 km/h N 4,6 C 7,3 C 2,0 km/h
19.11.2010 02:00 5,5 C 83 % 1014,8 hPa 0,0 l/m 0,0 km/h N 2,7 C 5,5 C 0,4 km/h
19.11.2010 03:00 4,0 C 84 % 1015,2 hPa 0,0 l/m 0,0 km/h N 1,6 C 4,0 C 0,4 km/h
19.11.2010 04:00 3,9 C 85 % 1015,4 hPa 0,0 l/m 0,0 km/h N 1,6 C 3,9 C 0,8 km/h
19.11.2010 05:00 3,6 C 85 % 1015,7 hPa 0,0 l/m 0,0 km/h N 1,3 C 3,6 C 1,6 km/h
19.11.2010 06:00 3,3 C 85 % 1015,8 hPa 0,0 l/m 0,0 km/h N 1,0 C 3,3 C 0,8 km/h
19.11.2010 07:00 3,6 C 85 % 1016,3 hPa 0,0 l/m 0,3 km/h N 1,3 C 3,6 C 2,4 km/h
19.11.2010 08:00 4,6 C 85 % 1016,5 hPa 0,0 l/m 0,1 km/h SW 2,3 C 4,6 C 1,6 km/h
19.11.2010 09:00 5,5 C 85 % 1017,2 hPa 0,5 l/m 0,7 km/h N 3,2 C 5,5 C 4,0 km/h
19.11.2010 10:00 5,9 C 85 % 1017,2 hPa 0,0 l/m 0,2 km/h N 3,6 C 5,9 C 2,4 km/h
19.11.2010 11:00 6,3 C 85 % 1016,8 hPa 0,0 l/m 0,0 km/h N 4,0 C 6,3 C 0,0 km/h
19.11.2010 12:00 6,8 C 85 % 1015,9 hPa 0,0 l/m 0,5 km/h N-NW 4,5 C 6,8 C 3,2 km/h
19.11.2010 13:00 7,0 C 85 % 1015,8 hPa 0,0 l/m 1,2 km/h W-SW 4,7 C 7,0 C 3,6 km/h
19.11.2010 14:00 6,7 C 85 % 1016,1 hPa 0,0 l/m 3,6 km/h NW 4,3 C 6,7 C 11,7 km/h
19.11.2010 15:00 6,1 C 85 % 1016,6 hPa 0,0 l/m 5,3 km/h W 3,8 C 6,1 C 16,9 km/h
19.11.2010 16:00 6,0 C 85 % 1017,0 hPa 0,0 l/m 4,1 km/h W 3,6 C 6,0 C 14,9 km/h
19.11.2010 17:00 6,2 C 82 % 1017,2 hPa 0,0 l/m 5,2 km/h W-SW 3,4 C 6,2 C 17,3 km/h
19.11.2010 18:00 6,3 C 81 % 1017,6 hPa 0,0 l/m 9,9 km/h W 3,2 C 3,5 C 28,1 km/h
19.11.2010 19:00 5,8 C 80 % 1018,5 hPa 0,0 l/m 5,6 km/h W 2,6 C 5,4 C 16,1 km/h
19.11.2010 20:00 5,7 C 81 % 1019,0 hPa 0,0 l/m 3,8 km/h W 2,6 C 5,7 C 16,5 km/h
19.11.2010 21:00 6,0 C 81 % 1019,4 hPa 0,0 l/m 3,0 km/h N-NW 2,9 C 6,0 C 9,7 km/h
19.11.2010 22:00 6,0 C 79 % 1019,6 hPa 0,0 l/m 2,8 km/h NW 2,7 C 6,0 C 9,3 km/h
19.11.2010 23:00 5,5 C 80 % 1019,6 hPa 0,0 l/m 1,2 km/h NW 2,4 C 5,5 C 6,0 km/h
20.11.2010 00:00 4,9 C 82 % 1019,4 hPa 0,0 l/m 1,0 km/h W-SW 2,2 C 4,9 C 4,8 km/h
20.11.2010 01:00 4,3 C 81 % 1019,8 hPa 0,0 l/m 0,1 km/h N 1,4 C 4,3 C 1,6 km/h
20.11.2010 02:00 2,9 C 82 % 1020,1 hPa 0,0 l/m 0,0 km/h N 0,1 C 2,9 C 0,8 km/h
20.11.2010 03:00 1,7 C 83 % 1020,3 hPa 0,0 l/m 0,0 km/h N -0,8 C 1,7 C 1,2 km/h
20.11.2010 04:00 1,0 C 85 % 1020,1 hPa 0,0 l/m 0,0 km/h N -1,2 C 1,0 C 1,2 km/h
20.11.2010 05:00 0,4 C 85 % 1020,0 hPa 0,0 l/m 0,0 km/h N -1,8 C 0,4 C 0,8 km/h
20.11.2010 06:00 0,4 C 86 % 1020,2 hPa 0,0 l/m 0,1 km/h N -1,7 C 0,4 C 1,2 km/h
20.11.2010 07:00 0,0 C 86 % 1020,3 hPa 0,0 l/m 0,0 km/h N -2,1 C 0,0 C 0,4 km/h
20.11.2010 08:00 0,8 C 86 % 1020,4 hPa 0,0 l/m 0,0 km/h N -1,4 C 0,8 C 0,4 km/h
20.11.2010 09:00 2,1 C 85 % 1020,2 hPa 0,0 l/m 0,0 km/h N -0,2 C 2,1 C 0,0 km/h
20.11.2010 10:00 3,6 C 85 % 1020,0 hPa 0,0 l/m 0,3 km/h N 1,3 C 3,6 C 2,0 km/h
20.11.2010 11:00 4,1 C 86 % 1019,6 hPa 0,0 l/m 0,2 km/h N 1,9 C 4,1 C 1,6 km/h
20.11.2010 12:00 4,8 C 85 % 1019,1 hPa 0,0 l/m 0,9 km/h NO 2,5 C 4,8 C 4,8 km/h
20.11.2010 13:00 5,3 C 85 % 1018,6 hPa 0,0 l/m 0,8 km/h O-NO 3,0 C 5,3 C 4,8 km/h
20.11.2010 14:00 5,9 C 85 % 1018,1 hPa 0,0 l/m 1,3 km/h O 3,6 C 5,9 C 5,2 km/h
20.11.2010 15:00 6,3 C 85 % 1017,9 hPa 0,0 l/m 2,2 km/h O 3,9 C 6,3 C 6,0 km/h
20.11.2010 16:00 5,9 C 85 % 1017,6 hPa 0,0 l/m 2,3 km/h O 3,6 C 5,9 C 7,6 km/h
20.11.2010 17:00 5,7 C 85 % 1017,4 hPa 0,0 l/m 1,0 km/h N 3,4 C 5,7 C 5,6 km/h
20.11.2010 18:00 5,7 C 85 % 1017,2 hPa 0,0 l/m 0,3 km/h N 3,4 C 5,7 C 2,8 km/h
20.11.2010 19:00 5,8 C 85 % 1016,9 hPa 0,0 l/m 0,7 km/h O-SO 3,5 C 5,8 C 4,8 km/h
20.11.2010 20:00 5,8 C 85 % 1016,4 hPa 0,0 l/m 0,7 km/h N 3,5 C 5,8 C 4,4 km/h
20.11.2010 21:00 5,9 C 85 % 1015,8 hPa 0,0 l/m 1,4 km/h O 3,6 C 5,9 C 5,6 km/h
20.11.2010 22:00 6,1 C 85 % 1015,3 hPa 0,0 l/m 2,8 km/h O-NO 3,8 C 6,1 C 7,2 km/h
20.11.2010 23:00 6,3 C 85 % 1014,8 hPa 0,0 l/m 1,8 km/h O 4,0 C 6,3 C 5,6 km/h
21.11.2010 00:00 6,4 C 85 % 1014,2 hPa 0,0 l/m 1,0 km/h O 4,1 C 6,4 C 4,4 km/h
21.11.2010 01:00 6,4 C 85 % 1013,7 hPa 0,0 l/m 0,3 km/h N 4,1 C 6,4 C 3,2 km/h
21.11.2010 02:00 6,0 C 85 % 1013,3 hPa 0,0 l/m 1,1 km/h S 3,7 C 6,0 C 4,4 km/h
21.11.2010 03:00 5,8 C 85 % 1012,6 hPa 0,0 l/m 0,3 km/h N 3,4 C 5,8 C 3,6 km/h
21.11.2010 04:00 5,6 C 85 % 1012,1 hPa 0,0 l/m 0,0 km/h N 3,3 C 5,6 C 1,6 km/h
21.11.2010 05:00 5,5 C 85 % 1011,7 hPa 0,0 l/m 0,0 km/h N 3,2 C 5,5 C 0,4 km/h
21.11.2010 06:00 5,5 C 85 % 1011,6 hPa 0,0 l/m 0,0 km/h N 3,2 C 5,5 C 0,0 km/h
21.11.2010 07:00 5,3 C 86 % 1011,5 hPa 0,0 l/m 0,0 km/h N 3,0 C 5,3 C 0,4 km/h
21.11.2010 08:00 5,5 C 85 % 1011,6 hPa 0,0 l/m 0,2 km/h N 3,1 C 5,5 C 3,2 km/h
21.11.2010 09:00 5,9 C 85 % 1011,6 hPa 0,0 l/m 0,8 km/h O-SO 3,6 C 5,9 C 5,6 km/h
21.11.2010 10:00 6,8 C 85 % 1011,2 hPa 0,0 l/m 2,0 km/h S-SO 4,5 C 6,8 C 7,6 km/h
21.11.2010 11:00 7,1 C 85 % 1010,6 hPa 0,0 l/m 2,0 km/h O 4,7 C 7,1 C 10,4 km/h
21.11.2010 12:00 7,5 C 85 % 1009,9 hPa 0,0 l/m 3,2 km/h S-SO 5,2 C 7,5 C 11,3 km/h
21.11.2010 13:00 7,5 C 85 % 1009,5 hPa 0,0 l/m 2,8 km/h O 5,2 C 7,5 C 11,3 km/h
21.11.2010 14:00 7,2 C 85 % 1009,4 hPa 0,0 l/m 3,2 km/h O-SO 4,9 C 7,2 C 11,3 km/h
21.11.2010 15:00 7,1 C 85 % 1009,0 hPa 0,0 l/m 1,8 km/h SO 4,8 C 7,1 C 9,3 km/h
21.11.2010 16:00 7,2 C 85 % 1008,7 hPa 0,0 l/m 3,2 km/h SO 4,9 C 7,2 C 10,5 km/h
21.11.2010 17:00 7,4 C 85 % 1008,2 hPa 0,0 l/m 3,0 km/h SO 5,1 C 7,4 C 10,1 km/h
21.11.2010 18:00 7,6 C 85 % 1008,0 hPa 0,0 l/m 3,5 km/h S-SO 5,3 C 7,6 C 11,7 km/h
21.11.2010 19:00 7,6 C 85 % 1007,9 hPa 0,0 l/m 2,5 km/h SO 5,2 C 7,6 C 8,8 km/h
21.11.2010 20:00 7,6 C 85 % 1007,5 hPa 0,0 l/m 1,4 km/h SO 5,2 C 7,6 C 7,6 km/h
21.11.2010 21:00 7,6 C 85 % 1007,1 hPa 0,0 l/m 1,9 km/h O-NO 5,2 C 7,6 C 8,4 km/h
21.11.2010 22:00 7,7 C 85 % 1006,5 hPa 0,0 l/m 0,7 km/h S-SO 5,3 C 7,7 C 4,8 km/h
21.11.2010 23:00 7,6 C 85 % 1006,0 hPa 0,0 l/m 0,3 km/h N 5,2 C 7,6 C 3,6 km/h
Min-Datum _ 20.11.10 17.11.10 21.11.10 - 15.11.10 - 20.11.10 20.11.10 15.11.10
_ Min-Zeit 07:45 00:30 23:45 - 00:15 - 07:30 07:30 00:30
Minimum _ -0,3 C 75 % 1005,7 hPa - 0,0 km/h - -2,3 C -0,2 C 0,0 km/h
Max-Datum _ 16.11.10 18.11.10 20.11.10 19.11.10 19.11.10 - 16.11.10 16.11.10 19.11.10
_ Max-Zeit 14:31 12:01 04:00 09:30 18:15 - 14:45 14:31 18:30
Maximum _ 11,4 C 89 % 1020,5 hPa 0,5 l/m 11,5 km/h
W
- 8,4 C 11,4 C 35,4 km/h
W
Durchschnitt _ 7,2 C 84 % 1012,7 hPa #1,0 l/m 1,2 km/h N-NW 4,6 C 7,2 C 4,7 km/h